createdAt,value
2018-09-30T00:02:13.031Z,101983.42
2018-09-30T00:04:42.475Z,101980.74
2018-09-30T00:07:11.919Z,101975.83
2018-09-30T00:09:41.290Z,101970.67
2018-09-30T00:12:11.003Z,101964.40
2018-09-30T00:14:40.318Z,101968.66
2018-09-30T00:17:09.632Z,101961.20
2018-09-30T00:19:39.043Z,101951.87
2018-09-30T00:22:08.401Z,101950.91
2018-09-30T00:24:43.120Z,101948.20
2018-09-30T00:27:17.604Z,101952.37
2018-09-30T00:29:47.403Z,101945.27
2018-09-30T00:32:18.796Z,101935.69
2018-09-30T00:34:48.236Z,101932.61
2018-09-30T00:37:18.936Z,101929.67
2018-09-30T00:39:48.406Z,101924.52
2018-09-30T00:42:18.120Z,101922.80
2018-09-30T00:44:47.448Z,101917.03
2018-09-30T00:47:16.836Z,101909.30
2018-09-30T00:49:46.769Z,101913.47
2018-09-30T00:52:16.138Z,101913.22
2018-09-30T00:54:45.554Z,101912.98
2018-09-30T00:57:15.081Z,101908.68
2018-09-30T00:59:44.590Z,101909.42
2018-09-30T01:02:14.123Z,101902.05
2018-09-30T01:04:43.665Z,101902.05
2018-09-30T01:07:13.113Z,101898.13
2018-09-30T01:09:42.675Z,101897.02
2018-09-30T01:12:12.166Z,101893.34
2018-09-30T01:14:41.473Z,101894.33
2018-09-30T01:17:10.814Z,101882.41
2018-09-30T01:19:40.294Z,101883.38
2018-09-30T01:22:09.909Z,101880.55
2018-09-30T01:24:40.613Z,101884.63
2018-09-30T01:27:10.127Z,101878.62
2018-09-30T01:29:39.600Z,101871.38
2018-09-30T01:32:08.912Z,101872.59
2018-09-30T01:34:38.546Z,101874.19
2018-09-30T01:37:07.907Z,101870.51
2018-09-30T01:39:37.239Z,101864.01
2018-09-30T01:42:06.784Z,101865.47
2018-09-30T01:44:36.113Z,101863.02
2018-09-30T01:47:05.401Z,101856.63
2018-09-30T01:49:34.814Z,101851.73
2018-09-30T01:52:21.146Z,101852.59
2018-09-30T01:54:51.155Z,101849.90
2018-09-30T01:57:20.690Z,101839.48
2018-09-30T01:59:50.075Z,101835.67
2018-09-30T02:02:19.393Z,101832.00
2018-09-30T02:04:48.689Z,101833.09
2018-09-30T02:07:18.028Z,101828.07
2018-09-30T02:09:47.323Z,101825.86
2018-09-30T02:12:17.626Z,101820.83
2018-09-30T02:14:46.923Z,101822.80
2018-09-30T02:17:16.487Z,101818.75
2018-09-30T02:19:46.063Z,101825.12
2018-09-30T02:22:15.377Z,101823.41
2018-09-30T02:24:44.886Z,101825.62
2018-09-30T02:27:14.274Z,101819.84
2018-09-30T02:29:43.584Z,101816.88
2018-09-30T02:32:12.954Z,101813.16
2018-09-30T02:34:42.455Z,101805.92
2018-09-30T02:37:11.806Z,101808.98
2018-09-30T02:39:41.594Z,101814.99
2018-09-30T02:42:11.709Z,101800.41
2018-09-30T02:44:41.204Z,101792.44
2018-09-30T02:47:10.841Z,101790.84
2018-09-30T02:49:40.696Z,101791.34
2018-09-30T02:52:10.315Z,101788.16
2018-09-30T02:54:39.803Z,101784.59
2018-09-30T02:57:09.198Z,101779.55
2018-09-30T02:59:38.540Z,101779.44
2018-09-30T03:02:08.378Z,101777.12
2018-09-30T03:04:37.679Z,101774.27
2018-09-30T03:07:12.415Z,101770.50
2018-09-30T03:09:43.116Z,101767.28
2018-09-30T03:12:12.750Z,101769.52
2018-09-30T03:14:42.175Z,101763.61
2018-09-30T03:17:11.528Z,101757.69
2018-09-30T03:19:40.841Z,101757.31
2018-09-30T03:22:10.432Z,101760.21
2018-09-30T03:24:39.846Z,101750.81
2018-09-30T03:27:09.175Z,101755.41
2018-09-30T03:29:38.598Z,101751.92
2018-09-30T03:32:07.862Z,101748.53
2018-09-30T03:34:37.210Z,101738.73
2018-09-30T03:37:06.620Z,101746.87
2018-09-30T03:39:35.980Z,101740.41
2018-09-30T03:42:05.311Z,101739.28
2018-09-30T03:44:34.873Z,101734.02
2018-09-30T03:47:04.288Z,101735.77
2018-09-30T03:49:33.687Z,101739.25
2018-09-30T03:52:03.061Z,101738.54
2018-09-30T03:54:32.431Z,101735.33
2018-09-30T03:57:01.842Z,101731.16
2018-09-30T03:59:31.231Z,101733.47
2018-09-30T04:02:00.589Z,101726.28
2018-09-30T04:04:29.888Z,101727.80
2018-09-30T04:06:59.371Z,101729.49
2018-09-30T04:09:28.763Z,101723.73
2018-09-30T04:11:58.284Z,101722.94
2018-09-30T04:14:27.648Z,101720.84
2018-09-30T04:16:57.077Z,101712.17
2018-09-30T04:19:26.455Z,101714.09
2018-09-30T04:21:55.841Z,101712.30
2018-09-30T04:24:25.172Z,101715.77
2018-09-30T04:26:54.556Z,101708.80
2018-09-30T04:29:24.167Z,101708.64
2018-09-30T04:31:53.664Z,101715.20
2018-09-30T04:34:23.039Z,101712.74
2018-09-30T04:36:52.446Z,101716.38
2018-09-30T04:39:21.745Z,101706.62
2018-09-30T04:41:51.075Z,101703.02
2018-09-30T04:44:20.737Z,101699.06
2018-09-30T04:46:50.044Z,101696.28
2018-09-30T04:49:19.349Z,101692.94
2018-09-30T04:51:48.760Z,101692.08
2018-09-30T04:54:18.142Z,101692.27
2018-09-30T04:56:47.460Z,101682.39
2018-09-30T04:59:16.804Z,101692.08
2018-09-30T05:01:46.226Z,101677.84
2018-09-30T05:04:15.865Z,101684.77
2018-09-30T05:06:45.400Z,101689.36
2018-09-30T05:09:14.738Z,101683.48
2018-09-30T05:11:44.080Z,101683.14
2018-09-30T05:14:14.056Z,101683.67
2018-09-30T05:16:43.402Z,101678.84
2018-09-30T05:19:12.786Z,101685.43
2018-09-30T05:21:42.200Z,101685.95
2018-09-30T05:24:11.573Z,101686.61
2018-09-30T05:26:40.923Z,101691.67
2018-09-30T05:29:10.377Z,101685.39
2018-09-30T05:31:39.731Z,101677.52
2018-09-30T05:34:09.068Z,101678.96
2018-09-30T05:36:38.499Z,101674.83
2018-09-30T05:39:10.305Z,101673.43
2018-09-30T05:41:39.937Z,101672.11
2018-09-30T05:44:10.444Z,101672.42
2018-09-30T05:46:40.210Z,101669.52
2018-09-30T05:49:09.814Z,101661.45
2018-09-30T05:51:39.191Z,101669.98
2018-09-30T05:54:08.615Z,101666.30
2018-09-30T05:56:38.284Z,101663.55
2018-09-30T05:59:07.705Z,101660.56
2018-09-30T06:01:37.026Z,101664.86
2018-09-30T06:04:06.509Z,101668.78
2018-09-30T06:06:36.606Z,101671.59
2018-09-30T06:09:11.300Z,101672.60
2018-09-30T06:11:40.724Z,101678.97
2018-09-30T06:14:10.347Z,101671.23
2018-09-30T06:16:40.089Z,101668.89
2018-09-30T06:19:09.544Z,101662.53
2018-09-30T06:21:39.697Z,101663.35
2018-09-30T06:24:09.924Z,101651.44
2018-09-30T06:26:39.404Z,101651.88
2018-09-30T06:29:09.440Z,101644.18
2018-09-30T06:31:38.835Z,101647.09
2018-09-30T06:34:08.308Z,101635.95
2018-09-30T06:36:37.703Z,101637.16
2018-09-30T06:39:10.188Z,101644.86
2018-09-30T06:41:39.628Z,101642.97
2018-09-30T06:44:09.478Z,101653.71
2018-09-30T06:46:38.846Z,101642.94
2018-09-30T06:49:08.744Z,101635.64
2018-09-30T06:51:38.108Z,101638.08
2018-09-30T06:54:07.508Z,101635.00
2018-09-30T06:56:36.886Z,101633.92
2018-09-30T06:59:06.302Z,101642.48
2018-09-30T07:01:36.111Z,101632.75
2018-09-30T07:04:05.499Z,101633.91
2018-09-30T07:06:34.803Z,101631.85
2018-09-30T07:09:04.823Z,101634.77
2018-09-30T07:11:34.381Z,101639.12
2018-09-30T07:14:03.944Z,101637.34
2018-09-30T07:16:33.530Z,101637.23
2018-09-30T07:19:03.093Z,101630.86
2018-09-30T07:21:32.662Z,101630.11
2018-09-30T07:24:02.311Z,101623.26
2018-09-30T07:26:31.674Z,101615.45
2018-09-30T07:29:01.051Z,101608.22
2018-09-30T07:31:30.524Z,101610.73
2018-09-30T07:33:59.881Z,101611.07
2018-09-30T07:36:29.220Z,101606.55
2018-09-30T07:38:58.627Z,101613.25
2018-09-30T07:41:28.081Z,101603.50
2018-09-30T07:43:57.423Z,101601.09
2018-09-30T07:46:27.167Z,101602.64
2018-09-30T07:48:57.005Z,101589.98
2018-09-30T07:51:26.486Z,101591.77
2018-09-30T07:53:55.900Z,101579.11
2018-09-30T07:56:25.354Z,101582.71
2018-09-30T07:58:54.724Z,101586.02
2018-09-30T08:01:24.096Z,101585.86
2018-09-30T08:03:53.402Z,101581.16
2018-09-30T08:06:22.761Z,101582.30
2018-09-30T08:08:52.138Z,101586.64
2018-09-30T08:11:21.414Z,101585.56
2018-09-30T08:13:50.705Z,101594.71
2018-09-30T08:16:20.076Z,101592.44
2018-09-30T08:18:49.359Z,101599.56
2018-09-30T08:21:18.731Z,101592.73
2018-09-30T08:23:48.129Z,101581.44
2018-09-30T08:26:17.422Z,101569.84
2018-09-30T08:28:46.937Z,101569.01
2018-09-30T08:31:16.412Z,101566.04
2018-09-30T08:33:45.790Z,101558.63
2018-09-30T08:36:15.177Z,101557.52
2018-09-30T08:38:44.579Z,101549.69
2018-09-30T08:41:14.085Z,101552.27
2018-09-30T08:43:44.188Z,101546.65
2018-09-30T08:46:13.916Z,101535.95
2018-09-30T08:48:43.398Z,101541.31
2018-09-30T08:51:12.719Z,101534.41
2018-09-30T08:53:42.646Z,101541.59
2018-09-30T08:56:12.080Z,101557.77
2018-09-30T08:58:41.367Z,101551.49
2018-09-30T09:01:10.769Z,101548.02
2018-09-30T09:03:40.246Z,101550.57
2018-09-30T09:06:11.182Z,101557.16
2018-09-30T09:08:42.051Z,101558.34
2018-09-30T09:11:11.384Z,101557.61
2018-09-30T09:13:40.761Z,101553.67
2018-09-30T09:16:10.632Z,101546.84
2018-09-30T09:18:40.198Z,101543.89
2018-09-30T09:21:10.836Z,101541.83
2018-09-30T09:23:40.901Z,101533.94
2018-09-30T09:26:10.294Z,101536.29
2018-09-30T09:28:39.730Z,101529.06
2018-09-30T09:31:09.083Z,101524.53
2018-09-30T09:33:41.427Z,101524.38
2018-09-30T09:36:12.144Z,101517.61
2018-09-30T09:38:41.515Z,101513.80
2018-09-30T09:41:10.993Z,101516.11
2018-09-30T09:43:40.579Z,101515.80
2018-09-30T09:46:10.109Z,101504.87
2018-09-30T09:48:40.468Z,101500.17
2018-09-30T09:51:10.024Z,101501.30
2018-09-30T09:53:39.436Z,101493.63
2018-09-30T09:56:08.894Z,101497.41
2018-09-30T09:58:38.589Z,101491.80
2018-09-30T10:01:08.100Z,101491.77
2018-09-30T10:03:37.423Z,101494.05
2018-09-30T10:06:06.762Z,101492.48
2018-09-30T10:08:36.351Z,101487.03
2018-09-30T10:11:05.816Z,101488.00
2018-09-30T10:13:35.207Z,101477.33
2018-09-30T10:16:04.590Z,101468.45
2018-09-30T10:18:34.845Z,101462.92
2018-09-30T10:21:04.352Z,101462.60
2018-09-30T10:23:33.779Z,101455.23
2018-09-30T10:26:03.168Z,101447.84
2018-09-30T10:28:32.606Z,101441.22
2018-09-30T10:31:01.996Z,101441.69
2018-09-30T10:33:31.509Z,101435.09
2018-09-30T10:36:00.924Z,101427.27
2018-09-30T10:38:31.193Z,101426.70
2018-09-30T10:41:00.598Z,101417.38
2018-09-30T10:43:30.267Z,101416.05
2018-09-30T10:45:59.698Z,101405.33
2018-09-30T10:48:29.065Z,101400.02
2018-09-30T10:50:58.491Z,101400.10
2018-09-30T10:53:27.968Z,101391.40
2018-09-30T10:55:57.370Z,101388.38
2018-09-30T10:58:29.527Z,101396.83
2018-09-30T11:00:58.946Z,101386.17
2018-09-30T11:03:28.787Z,101375.16
2018-09-30T11:05:58.361Z,101385.23
2018-09-30T11:08:27.674Z,101364.58
2018-09-30T11:10:57.605Z,101368.44
2018-09-30T11:13:27.012Z,101368.52
2018-09-30T11:15:57.675Z,101356.92
2018-09-30T11:18:27.020Z,101367.89
2018-09-30T11:20:57.094Z,101358.97
2018-09-30T11:23:26.480Z,101358.72
2018-09-30T11:25:55.919Z,101351.91
2018-09-30T11:28:25.935Z,101350.08
2018-09-30T11:30:55.355Z,101362.66
2018-09-30T11:33:24.674Z,101356.45
2018-09-30T11:35:54.094Z,101340.12
2018-09-30T11:38:23.509Z,101331.14
2018-09-30T11:40:53.899Z,101339.91
2018-09-30T11:43:23.604Z,101329.01
2018-09-30T11:45:53.276Z,101333.55
2018-09-30T11:48:22.615Z,101326.11
2018-09-30T11:50:52.902Z,101326.20
2018-09-30T11:53:22.224Z,101314.64
2018-09-30T11:55:51.791Z,101331.51
2018-09-30T11:58:21.518Z,101315.59
2018-09-30T12:00:51.337Z,101308.19
2018-09-30T12:03:20.679Z,101309.36
2018-09-30T12:05:50.133Z,101308.45
2018-09-30T12:08:19.689Z,101304.14
2018-09-30T12:10:49.159Z,101291.44
2018-09-30T12:13:19.517Z,101294.75
2018-09-30T12:15:49.052Z,101288.50
2018-09-30T12:18:18.424Z,101282.38
2018-09-30T12:20:48.193Z,101278.14
2018-09-30T12:23:17.753Z,101275.77
2018-09-30T12:25:47.261Z,101270.49
2018-09-30T12:28:16.723Z,101268.63
2018-09-30T12:30:46.100Z,101274.84
2018-09-30T12:33:15.422Z,101273.38
2018-09-30T12:35:45.223Z,101266.84
2018-09-30T12:38:14.572Z,101265.56
2018-09-30T12:40:44.000Z,101268.78
2018-09-30T12:43:13.414Z,101259.05
2018-09-30T12:45:42.764Z,101254.37
2018-09-30T12:48:12.153Z,101245.80
2018-09-30T12:50:41.644Z,101254.75
2018-09-30T12:53:11.007Z,101250.30
2018-09-30T12:55:40.577Z,101240.69
2018-09-30T12:58:10.170Z,101248.27
2018-09-30T13:00:40.076Z,101250.84
2018-09-30T13:03:09.548Z,101250.67
2018-09-30T13:05:39.050Z,101245.39
2018-09-30T13:08:08.459Z,101235.09
2018-09-30T13:10:41.356Z,101234.69
2018-09-30T13:13:11.338Z,101230.83
2018-09-30T13:15:40.722Z,101237.06
2018-09-30T13:18:10.877Z,101241.36
2018-09-30T13:20:40.911Z,101225.20
2018-09-30T13:23:10.285Z,101227.76
2018-09-30T13:25:39.692Z,101221.91
2018-09-30T13:28:09.126Z,101215.34
2018-09-30T13:30:38.769Z,101221.73
2018-09-30T13:33:08.340Z,101226.85
2018-09-30T13:35:37.949Z,101224.10
2018-09-30T13:38:07.330Z,101219.64
2018-09-30T13:40:36.966Z,101214.69
2018-09-30T13:43:06.465Z,101223.14
2018-09-30T13:45:36.035Z,101221.28
2018-09-30T13:48:05.462Z,101214.17
2018-09-30T13:50:35.031Z,101226.25
2018-09-30T13:53:04.432Z,101220.30
2018-09-30T13:55:33.902Z,101214.81
2018-09-30T13:58:03.230Z,101216.77
2018-09-30T14:00:32.888Z,101206.84
2018-09-30T14:03:02.626Z,101202.33
2018-09-30T14:05:32.023Z,101205.39
2018-09-30T14:08:01.538Z,101203.80
2018-09-30T14:10:31.012Z,101207.52
2018-09-30T14:13:00.382Z,101205.92
2018-09-30T14:15:29.751Z,101197.83
2018-09-30T14:17:59.154Z,101199.20
2018-09-30T14:20:28.569Z,101199.22
2018-09-30T14:22:58.019Z,101196.69
2018-09-30T14:25:27.421Z,101195.38
2018-09-30T14:27:56.946Z,101193.66
2018-09-30T14:30:26.333Z,101197.62
2018-09-30T14:32:57.209Z,101192.44
2018-09-30T14:35:26.609Z,101193.37
2018-09-30T14:37:55.939Z,101195.81
2018-09-30T14:40:25.270Z,101197.75
2018-09-30T14:42:55.194Z,101188.84
2018-09-30T14:45:24.541Z,101196.66
2018-09-30T14:47:54.212Z,101201.23
2018-09-30T14:50:23.584Z,101195.52
2018-09-30T14:52:53.796Z,101191.08
2018-09-30T14:55:23.221Z,101187.70
2018-09-30T14:57:52.791Z,101195.33
2018-09-30T15:00:22.236Z,101189.72
2018-09-30T15:02:51.651Z,101185.92
2018-09-30T15:05:21.021Z,101180.73
2018-09-30T15:07:50.452Z,101177.03
2018-09-30T15:10:21.007Z,101179.89
2018-09-30T15:12:50.438Z,101170.50
2018-09-30T15:15:19.835Z,101170.80
2018-09-30T15:17:49.257Z,101172.08
2018-09-30T15:20:18.684Z,101168.91
2018-09-30T15:22:48.986Z,101162.95
2018-09-30T15:25:18.426Z,101159.53
2018-09-30T15:27:47.831Z,101165.03
2018-09-30T15:30:17.128Z,101170.91
2018-09-30T15:32:46.635Z,101170.53
2018-09-30T15:35:16.045Z,101160.13
2018-09-30T15:37:45.443Z,101161.20
2018-09-30T15:40:15.067Z,101155.95
2018-09-30T15:42:44.493Z,101158.47
2018-09-30T15:45:13.892Z,101160.45
2018-09-30T15:47:43.417Z,101158.00
2018-09-30T15:50:12.769Z,101151.13
2018-09-30T15:52:42.152Z,101155.46
2018-09-30T15:55:11.784Z,101159.02
2018-09-30T15:57:41.436Z,101154.33
2018-09-30T16:00:10.871Z,101151.81
2018-09-30T16:02:40.392Z,101153.45
2018-09-30T16:05:09.819Z,101149.19
2018-09-30T16:07:39.290Z,101150.67
2018-09-30T16:10:08.377Z,101154.78
2018-09-30T16:12:37.747Z,101155.98
2018-09-30T16:15:08.519Z,101148.64
2018-09-30T16:17:37.953Z,101140.77
2018-09-30T16:20:07.317Z,101146.68
2018-09-30T16:22:36.672Z,101148.89
2018-09-30T16:25:06.182Z,101147.73
2018-09-30T16:27:35.701Z,101146.77
2018-09-30T16:30:05.453Z,101147.17
2018-09-30T16:32:34.949Z,101141.77
2018-09-30T16:35:04.341Z,101140.33
2018-09-30T16:37:33.750Z,101138.86
2018-09-30T16:40:03.195Z,101142.34
2018-09-30T16:42:32.715Z,101138.87
2018-09-30T16:45:02.135Z,101143.91
2018-09-30T16:47:32.761Z,101141.86
2018-09-30T16:50:02.225Z,101148.47
2018-09-30T16:52:31.866Z,101146.09
2018-09-30T16:55:01.331Z,101150.97
2018-09-30T16:57:30.750Z,101147.05
2018-09-30T17:00:00.094Z,101159.34
2018-09-30T17:02:29.876Z,101161.75
2018-09-30T17:04:59.316Z,101158.94
2018-09-30T17:07:29.212Z,101165.13
2018-09-30T17:09:58.901Z,101166.91
2018-09-30T17:12:28.523Z,101169.21
2018-09-30T17:14:58.539Z,101167.34
2018-09-30T17:17:27.955Z,101170.13
2018-09-30T17:19:57.298Z,101169.48
2018-09-30T17:22:28.220Z,101161.53
2018-09-30T17:24:59.936Z,101163.55
2018-09-30T17:27:29.659Z,101165.17
2018-09-30T17:29:59.180Z,101170.84
2018-09-30T17:32:31.187Z,101164.06
2018-09-30T17:35:00.659Z,101167.96
2018-09-30T17:37:30.393Z,101164.30
2018-09-30T17:40:00.010Z,101162.43
2018-09-30T17:42:29.604Z,101165.95
2018-09-30T17:44:59.396Z,101163.80
2018-09-30T17:47:29.024Z,101159.19
2018-09-30T17:49:58.617Z,101166.80
2018-09-30T17:52:28.182Z,101167.65
2018-09-30T17:54:57.754Z,101155.47
2018-09-30T17:57:27.436Z,101153.19
2018-09-30T17:59:56.920Z,101159.95
2018-09-30T18:02:27.100Z,101168.67
2018-09-30T18:04:56.500Z,101168.28
2018-09-30T18:07:25.977Z,101169.00
2018-09-30T18:09:55.453Z,101170.74
2018-09-30T18:12:26.890Z,101166.50
2018-09-30T18:14:56.306Z,101162.73
2018-09-30T18:17:26.047Z,101160.95
2018-09-30T18:19:55.536Z,101157.08
2018-09-30T18:22:25.310Z,101153.44
2018-09-30T18:24:54.955Z,101153.81
2018-09-30T18:27:25.260Z,101153.45
2018-09-30T18:29:54.741Z,101154.39
2018-09-30T18:32:24.886Z,101149.69
2018-09-30T18:34:54.353Z,101149.88
2018-09-30T18:37:23.807Z,101149.68
2018-09-30T18:39:53.181Z,101145.97
2018-09-30T18:42:22.791Z,101152.47
2018-09-30T18:44:52.256Z,101143.28
2018-09-30T18:47:29.825Z,101143.00
2018-09-30T18:49:59.295Z,101141.45
2018-09-30T18:52:29.212Z,101135.39
2018-09-30T18:54:58.707Z,101130.20
2018-09-30T18:57:28.156Z,101140.86
2018-09-30T18:59:57.609Z,101133.75
2018-09-30T19:02:27.228Z,101124.67
2018-09-30T19:04:56.672Z,101130.72
2018-09-30T19:07:26.232Z,101124.09
2018-09-30T19:09:55.821Z,101122.54
2018-09-30T19:12:25.243Z,101122.69
2018-09-30T19:14:54.853Z,101119.28
2018-09-30T19:17:24.372Z,101120.64
2018-09-30T19:19:54.142Z,101120.98
2018-09-30T19:22:24.566Z,101120.58
2018-09-30T19:24:54.005Z,101113.02
2018-09-30T19:27:23.633Z,101116.47
2018-09-30T19:29:53.410Z,101115.89
2018-09-30T19:32:22.929Z,101108.11
2018-09-30T19:34:52.679Z,101108.86
2018-09-30T19:37:22.366Z,101102.77
2018-09-30T19:39:51.861Z,101107.78
2018-09-30T19:42:21.527Z,101105.61
2018-09-30T19:44:51.149Z,101104.33
2018-09-30T19:47:21.220Z,101100.55
2018-09-30T19:49:50.781Z,101096.99
2018-09-30T19:52:20.694Z,101096.19
2018-09-30T19:54:51.259Z,101090.39
2018-09-30T19:57:21.301Z,101087.31
2018-09-30T19:59:50.998Z,101081.19
2018-09-30T20:02:20.501Z,101078.12
2018-09-30T20:04:50.097Z,101074.74
2018-09-30T20:07:20.310Z,101069.02
2018-09-30T20:09:49.678Z,101073.10
2018-09-30T20:12:19.433Z,101062.27
2018-09-30T20:14:48.998Z,101059.06
2018-09-30T20:17:18.531Z,101052.10
2018-09-30T20:19:47.991Z,101053.86
2018-09-30T20:22:17.529Z,101063.04
2018-09-30T20:24:47.160Z,101053.30
2018-09-30T20:27:16.612Z,101049.67
2018-09-30T20:29:46.128Z,101060.06
2018-09-30T20:32:15.645Z,101058.88
2018-09-30T20:34:45.772Z,101054.58
2018-09-30T20:37:16.429Z,101055.36
2018-09-30T20:39:47.329Z,101048.41
2018-09-30T20:42:17.197Z,101051.09
2018-09-30T20:44:46.611Z,101053.77
2018-09-30T20:47:16.296Z,101052.10
2018-09-30T20:49:45.895Z,101050.90
2018-09-30T20:52:15.463Z,101056.16
2018-09-30T20:54:46.127Z,101054.09
2018-09-30T20:57:15.804Z,101049.41
2018-09-30T20:59:45.361Z,101048.19
2018-09-30T21:02:14.819Z,101048.17
2018-09-30T21:04:44.600Z,101043.73
2018-09-30T21:07:14.077Z,101039.84
2018-09-30T21:09:43.576Z,101037.28
2018-09-30T21:12:13.012Z,101037.23
2018-09-30T21:14:42.407Z,101038.08
2018-09-30T21:17:11.888Z,101030.47
2018-09-30T21:19:41.242Z,101026.19
2018-09-30T21:22:10.850Z,101029.52
2018-09-30T21:24:40.304Z,101029.80
2018-09-30T21:27:09.705Z,101022.17
2018-09-30T21:29:39.032Z,101017.91
2018-09-30T21:32:08.468Z,101021.89
2018-09-30T21:34:37.842Z,101012.33
2018-09-30T21:37:07.300Z,101014.08
2018-09-30T21:39:36.769Z,101013.84
2018-09-30T21:42:06.208Z,101017.23
2018-09-30T21:44:35.609Z,101016.41
2018-09-30T21:47:05.312Z,101018.23
2018-09-30T21:49:34.759Z,101018.97
2018-09-30T21:52:04.160Z,101014.62
2018-09-30T21:54:33.672Z,101019.41
2018-09-30T21:57:03.291Z,101015.73
2018-09-30T21:59:32.681Z,101008.27
2018-09-30T22:02:02.609Z,101013.72
2018-09-30T22:04:32.003Z,101010.73
2018-09-30T22:07:01.426Z,101012.48
2018-09-30T22:09:31.697Z,101010.08
2018-09-30T22:12:01.051Z,101002.59
2018-09-30T22:14:30.449Z,101013.81
2018-09-30T22:16:59.970Z,101006.00
2018-09-30T22:19:29.402Z,101001.91
2018-09-30T22:21:58.869Z,101001.25
2018-09-30T22:24:29.066Z,100994.31
2018-09-30T22:26:58.513Z,100996.88
2018-09-30T22:29:27.921Z,100991.80
2018-09-30T22:31:57.340Z,100994.83
2018-09-30T22:34:26.771Z,100996.37
2018-09-30T22:36:57.119Z,100999.77
2018-09-30T22:39:26.596Z,100995.53
2018-09-30T22:41:55.920Z,100991.80
2018-09-30T22:44:25.436Z,100988.74
2018-09-30T22:46:54.877Z,100993.83
2018-09-30T22:49:24.251Z,100988.56
2018-09-30T22:51:53.637Z,100989.58
2018-09-30T22:54:23.002Z,100993.16
2018-09-30T22:56:52.381Z,100985.34
2018-09-30T22:59:21.914Z,100980.42
2018-09-30T23:01:51.388Z,100989.42
2018-09-30T23:04:22.292Z,100987.89
2018-09-30T23:06:53.838Z,100981.61
2018-09-30T23:09:23.237Z,100981.61
2018-09-30T23:11:52.709Z,100980.42
2018-09-30T23:14:22.181Z,100976.01
2018-09-30T23:16:51.519Z,100972.11
2018-09-30T23:19:20.856Z,100971.43
2018-09-30T23:22:04.671Z,100972.63
2018-09-30T23:24:34.564Z,100970.75
2018-09-30T23:27:04.110Z,100975.50
2018-09-30T23:29:35.220Z,100966.16
2018-09-30T23:32:04.587Z,100961.75
2018-09-30T23:34:34.815Z,100968.38
2018-09-30T23:37:04.174Z,100963.27
2018-09-30T23:39:33.592Z,100962.27
2018-09-30T23:42:02.864Z,100964.63
2018-09-30T23:44:33.179Z,100950.72
2018-09-30T23:47:02.678Z,100954.80
2018-09-30T23:49:31.982Z,100951.39
2018-09-30T23:52:02.787Z,100957.52
2018-09-30T23:54:32.125Z,100955.31
2018-09-30T23:57:01.402Z,100956.84
2018-09-30T23:59:30.735Z,100948.69
